Destin, FL

6:33 PM CST on February 13, 2016 (GMT -0600)
Destin Water Users | | Change Station
CLOSE
Current Station
Personal Weather Station
Location: Destin, FL
Elevation: 26 ft
Nearby Weather Stations

Elev 26 ft 30.39 °N, 86.48 °W | Updated 1 second ago

Clear
Clear
52.6 °F
Feels Like 52.6 °F
N
4.9
Wind Variable Wind from NNW
Gusts 4.9 mph

Today
High -- | Low -- °F
--% Chance of Precip.
Yesterday
High -- | Low -- °F
Precip. -- in
Pressure 30.34 in
Visibility 10.0 miles
Clouds Clear
Dew Point 26 °F
Humidity 35%
Rainfall 0.00 in
Snow Depth Not available.
6:28 AM 5:32 PM
Waxing Crescent, 35% visible
METAR KDTS 132353Z AUTO 36007KT 10SM CLR 13/M06 A3034 RMK AO2 SLP272 T01331056 10167 20133 53009 TSNO
Pressure 30.34 in
Visibility 10.0 miles
Clouds Clear
Dew Point 26 °F
Humidity 35%
Rainfall 0.00 in
Snow Depth Not available.
6:28 AM 5:32 PM
Waxing Crescent, 35% visible
METAR KDTS 132353Z AUTO 36007KT 10SM CLR 13/M06 A3034 RMK AO2 SLP272 T01331056 10167 20133 53009 TSNO

10-Day Weather Forecast

Almanac

Astronomy

Feb. 13, 2016 Rise Set
Actual Time
Civil Twilight
Nautical Twilight
Astronomical Twilight
Moon
Length of Visible Light
Length of Day
Tomorrow will be .
, % of the Moon is Illuminated

Today's Extremes

State Highs State Lows

Community

WunderPhotos

Upload Photos

1,892,712 photos uploaded!

WunderBlog® & News

Nearby

Air Quality

  Air Quality AQ Index Pollutant
Not available.

Snow Depth

Station Depth Elevation

Earthquake Activity

City Distance Mag. Time & Date
Minimum magnitude displayed is 2.5.

Coastal Water Temperatures

Place Temperature

Stations

Nearby Weather Stations

Station Location Temp. Windchill Dew Point Humidity Wind Precip. Elev Updated Type
                   

Watches & Warnings

There are currently no watches in effect.